Baruunkharaa, Mongolia
Current Conditions -  °F | °C
As of 1:30 PM on Friday 31 Oct 2014 (Local Time) from ZMUB Reporting Station
Few Clouds Few Clouds  
Wind Chill: 32°   Ceiling: Unl
Heat Index: 36°   Visibility: 6mi
Dew Point: 23°   Wind: 4mph
Humidity: 60%   Direction: 260°W
Pressure: 29.94"   Gusts: NA
Location:  48.92°N, 106.07°E
Report Text: ZMUB 310530Z 26002MPS 9999 FEW033 02/M05 Q1014 NOSIG RMK QFE653.6 57 MOP
Loading
Personal Weather Stations






























Interactive Weather Map
Tropical Storm Tracking
New forecast layout! Learn more

10-Day Weather Forecast

Advertisements
Track Severe Weather on mobile